Terminal Aerodrome Forecast
Issued by NWS

Home | Current Version | Previous Version | Text Only | Print | Product List | Glossary Off
Versions: 1 2 3 4 5 6 7 8 9 10 11 12 13 14 15 16 17 18 19 20 21 22 23 24 25 26 27 28 29 30 31 32 33 34 35 36 37 38 39 40 41 42 43 44 45 46 47 48 49 50

867
FTUS43 KGRB 171730
TAFRHI
TAF
KRHI 171730Z 1718/1818 21009KT 5SM -SHRA BR BKN015 OVC040
      TEMPO 1718/1722 2SM SHRA BR BKN008
     FM172200 28008G14KT P6SM -SHRA SCT008 OVC015
      TEMPO 1722/1802 4SM -SHRA BR BKN008
     FM180200 29009G17KT 5SM BR VCSH OVC006
     FM180600 29009G16KT 3SM BR OVC004
     FM181400 31010G17KT P6SM BKN015
     FM181600 31010G17KT P6SM SCT025 BKN040=

USA.gov is the U.S. government's official web portal to all federal, state and local government web resources and services.